Change the Weather History Date:

Saturday, March 15, 2014

  Actual Average (KVPZ) Record (KVPZ)
Temperature  
Mean Temperature 38 °F 37 °F  
Max Temperature 44 °F 46 °F 81 °F (2012)
Min Temperature 32 °F 29 °F -2 °F (1993)
Degree Days  
Heating Degree Days 27 28  
Month to date heating degree days 453  
Since 1 July heating degree days 5185  
Cooling Degree Days 0 0  
Month to date cooling degree days 0  
Year to date cooling degree days 0  
Moisture  
Dew Point 30 °F    
Average Humidity 79    
Maximum Humidity 100    
Minimum Humidity 53    
Precipitation  
Precipitation 0.00 in 0.08 in 1.92 in (1929)
Month to date precipitation 1.12  
Year to date precipitation 4.29  
Sea Level Pressure  
Sea Level Pressure 30.06 in    
Wind  
Wind Speed 9 mph (NNW)    
Max Wind Speed 17 mph    
Max Gust Speed 22 mph    
Visibility 10 miles    
Events      
T = Trace of Precipitation, MM = Missing Value Source: NWS Daily Summary

Daily Weather History Graph

Daily Weather History Graph

Search for Another Location

Airport or City:

Trip Planner

Search our weather history database for the weather conditions in past years. The results will help you decide how hot, cold, wet, or windy it might be!

Date:

Astronomy

Mar. 15, 2014 Rise Set
Actual Time 7:00 AM CDT 6:55 PM CDT
Civil Twilight 6:33 AM CDT 7:22 PM CDT
Nautical Twilight 6:01 AM CDT 7:54 PM CDT
Astronomical Twilight 5:28 AM CDT 8:27 PM CDT
Moon 6:14 PM CDT (3/15) 6:12 AM CDT (3/15)
Length of Visible Light 12h 49m
Length of Day
11h 55m
Waxing Gibbous, 99% of the Moon is Illuminated
Mar 15
Waxing Gibbous
Mar 16
Full
Mar 23
Last Quarter
Mar 30
New
Apr 7
First Quarter

Hourly Weather History & Observations

Time (CDT) Temp. Windchill Dew Point Humidity Pressure Visibility Wind Dir Wind Speed Gust Speed Precip Events Conditions
12:15 AM 37.4 °F 30.3 °F 32.0 °F 81% 29.90 in 10.0 mi WSW 10.4 mph - N/A   Clear
12:35 AM 37.4 °F 30.3 °F 32.0 °F 81% 29.90 in 10.0 mi WSW 10.4 mph - N/A   Clear
12:55 AM 37.4 °F 31.4 °F 32.0 °F 81% 29.90 in 10.0 mi WSW 8.1 mph - N/A   Clear
1:15 AM 35.6 °F 28.6 °F 32.0 °F 87% 29.90 in 10.0 mi WSW 9.2 mph - N/A   Clear
1:35 AM 35.6 °F 28.6 °F 32.0 °F 87% 29.91 in 10.0 mi SW 9.2 mph - N/A   Clear
1:55 AM 35.6 °F 28.0 °F 32.0 °F 87% 29.91 in 10.0 mi SW 10.4 mph - N/A   Clear
2:15 AM 35.6 °F 28.0 °F 32.0 °F 87% 29.92 in 10.0 mi WSW 10.4 mph - N/A   Clear
2:35 AM 35.6 °F 28.0 °F 32.0 °F 87% 29.92 in 10.0 mi WSW 10.4 mph - N/A   Clear
2:55 AM 35.6 °F 28.0 °F 32.0 °F 87% 29.92 in 10.0 mi WSW 10.4 mph - N/A   Clear
3:15 AM 35.6 °F 28.0 °F 32.0 °F 87% 29.92 in 10.0 mi WSW 10.4 mph - N/A   Clear
3:35 AM 35.6 °F 28.0 °F 32.0 °F 87% 29.92 in 10.0 mi WSW 10.4 mph - N/A   Clear
3:55 AM 35.6 °F 28.0 °F 32.0 °F 87% 29.93 in 10.0 mi West 10.4 mph - N/A   Clear
4:15 AM 35.6 °F 28.0 °F 32.0 °F 87% 29.94 in 10.0 mi West 10.4 mph - N/A   Clear
4:35 AM 35.6 °F 28.0 °F 32.0 °F 87% 29.94 in 10.0 mi West 10.4 mph - N/A   Clear
4:55 AM 35.6 °F 28.6 °F 32.0 °F 87% 29.95 in 10.0 mi West 9.2 mph - N/A   Clear
5:15 AM 35.6 °F 29.2 °F 32.0 °F 87% 29.95 in 10.0 mi West 8.1 mph - N/A   Clear
5:35 AM 33.8 °F 27.0 °F 32.0 °F 93% 29.96 in 10.0 mi West 8.1 mph - N/A   Clear
5:55 AM 33.8 °F 27.0 °F 32.0 °F 93% 29.97 in 10.0 mi West 8.1 mph - N/A   Clear
6:15 AM 33.8 °F 27.7 °F 32.0 °F 93% 29.97 in 10.0 mi West 6.9 mph - N/A   Clear
6:35 AM 33.8 °F 27.7 °F 32.0 °F 93% 29.99 in 10.0 mi West 6.9 mph - N/A   Clear
6:55 AM 33.8 °F 26.4 °F 32.0 °F 93% 30.00 in 10.0 mi WSW 9.2 mph - N/A   Clear
7:15 AM 32.0 °F 26.4 °F 32.0 °F 100% 30.01 in 10.0 mi West 5.8 mph - N/A   Clear
7:35 AM 33.8 °F 27.0 °F 32.0 °F 93% 30.02 in 10.0 mi West 8.1 mph - N/A   Clear
7:55 AM 33.8 °F 27.7 °F 32.0 °F 93% 30.03 in 10.0 mi West 6.9 mph - N/A   Clear
8:15 AM 33.8 °F 27.7 °F 32.0 °F 93% 30.03 in 10.0 mi West 6.9 mph - N/A   Clear
8:35 AM 35.6 °F 29.2 °F 32.0 °F 87% 30.04 in 10.0 mi NW 8.1 mph - N/A   Clear
8:55 AM 35.6 °F 29.9 °F 32.0 °F 87% 30.05 in 10.0 mi NW 6.9 mph - N/A   Clear
9:15 AM 35.6 °F 28.0 °F 32.0 °F 87% 30.06 in 10.0 mi NW 10.4 mph - N/A   Clear
9:35 AM 35.6 °F 29.2 °F 32.0 °F 87% 30.06 in 10.0 mi NW 8.1 mph - N/A   Clear
9:55 AM 35.6 °F 29.9 °F 30.2 °F 81% 30.07 in 10.0 mi NW 6.9 mph - N/A   Clear
10:15 AM 37.4 °F 32.8 °F 30.2 °F 75% 30.08 in 10.0 mi NNW 5.8 mph - N/A   Clear
10:35 AM 37.4 °F 32.8 °F 30.2 °F 75% 30.09 in 10.0 mi NW 5.8 mph - N/A   Clear
10:55 AM 37.4 °F 32.8 °F 30.2 °F 75% 30.10 in 10.0 mi NW 5.8 mph - N/A   Clear
11:15 AM 37.4 °F 32.1 °F 30.2 °F 75% 30.10 in 10.0 mi NW 6.9 mph - N/A   Clear
11:35 AM 39.2 °F 37.0 °F 30.2 °F 70% 30.11 in 10.0 mi WNW 3.5 mph - N/A   Clear
11:55 AM 39.2 °F 35.9 °F 28.4 °F 65% 30.12 in 10.0 mi NW 4.6 mph - N/A   Mostly Cloudy
12:15 PM 41.0 °F 39.0 °F 32.0 °F 70% 30.12 in 10.0 mi NW 3.5 mph - N/A   Overcast
12:35 PM 41.0 °F - 30.2 °F 65% 30.12 in 10.0 mi Calm Calm - N/A   Scattered Clouds
12:55 PM 41.0 °F - 28.4 °F 61% 30.11 in 10.0 mi Calm Calm - N/A   Clear
1:15 PM 41.0 °F 38.0 °F 28.4 °F 61% 30.11 in 10.0 mi ENE 4.6 mph - N/A   Scattered Clouds
1:35 PM 42.8 °F 40.1 °F 28.4 °F 57% 30.11 in 10.0 mi NNW 4.6 mph - N/A   Scattered Clouds
1:55 PM 42.8 °F - 28.4 °F 57% 30.10 in 10.0 mi Calm Calm - N/A   Scattered Clouds
2:15 PM 42.8 °F 40.1 °F 28.4 °F 57% 30.10 in 10.0 mi NE 4.6 mph - N/A   Scattered Clouds
2:35 PM 42.8 °F 41.1 °F 28.4 °F 57% 30.10 in 10.0 mi NNE 3.5 mph - N/A   Overcast
2:55 PM 42.8 °F - 28.4 °F 57% 30.10 in 10.0 mi Calm Calm - N/A   Overcast
3:15 PM 42.8 °F 40.1 °F 28.4 °F 57% 30.09 in 10.0 mi North 4.6 mph - N/A   Overcast
3:35 PM 44.6 °F 42.2 °F 28.4 °F 53% 30.10 in 10.0 mi NNE 4.6 mph - N/A   Mostly Cloudy
3:55 PM 42.8 °F 39.3 °F 28.4 °F 57% 30.10 in 10.0 mi NE 5.8 mph - N/A   Mostly Cloudy
4:15 PM 42.8 °F 40.1 °F 28.4 °F 57% 30.10 in 10.0 mi NE 4.6 mph - N/A   Mostly Cloudy
4:35 PM 42.8 °F 39.3 °F 28.4 °F 57% 30.10 in 10.0 mi NE 5.8 mph - N/A   Mostly Cloudy
4:55 PM 42.8 °F 36.6 °F 30.2 °F 61% 30.10 in 10.0 mi NNE 11.5 mph - N/A   Overcast
5:15 PM 41.0 °F 33.9 °F 32.0 °F 70% 30.10 in 10.0 mi NNE 12.7 mph - N/A   Mostly Cloudy
5:35 PM 41.0 °F 34.7 °F 32.0 °F 70% 30.11 in 10.0 mi NNE 10.4 mph - N/A   Scattered Clouds
5:55 PM 39.2 °F 31.6 °F 30.2 °F 70% 30.12 in 10.0 mi NNE 12.7 mph - N/A   Scattered Clouds
6:15 PM 37.4 °F 28.9 °F 30.2 °F 75% 30.13 in 10.0 mi NNE 13.8 mph - N/A   Mostly Cloudy
6:35 PM 35.6 °F 26.2 °F 30.2 °F 81% 30.14 in 10.0 mi NNE 15.0 mph - N/A   Scattered Clouds
6:55 PM 35.6 °F 26.2 °F 30.2 °F 81% 30.14 in 10.0 mi NNE 15.0 mph 18.4 mph N/A   Clear
7:15 PM 33.8 °F 24.8 °F 30.2 °F 87% 30.15 in 10.0 mi North 12.7 mph 21.9 mph N/A   Clear
7:35 PM 33.8 °F 25.3 °F 30.2 °F 87% 30.16 in 10.0 mi NNE 11.5 mph - N/A   Clear
7:55 PM 32.0 °F 24.2 °F 30.2 °F 93% 30.17 in 10.0 mi NNE 9.2 mph - N/A   Clear
8:15 PM 32.0 °F 23.6 °F 30.2 °F 93% 30.18 in 10.0 mi NNE 10.4 mph - N/A   Clear
8:35 PM 32.0 °F 23.6 °F 28.4 °F 87% 30.19 in 10.0 mi NNE 10.4 mph - N/A   Clear
8:55 PM 32.0 °F 24.2 °F 28.4 °F 87% 30.20 in 10.0 mi NNE 9.2 mph - N/A   Clear
9:15 PM 32.0 °F 23.6 °F 28.4 °F 87% 30.20 in 10.0 mi NNE 10.4 mph - N/A   Clear
9:35 PM 32.0 °F 22.5 °F 28.4 °F 87% 30.19 in 10.0 mi NNE 12.7 mph - N/A   Clear
9:55 PM 32.0 °F 21.6 °F 28.4 °F 87% 30.18 in 10.0 mi NNE 15.0 mph - N/A   Clear
10:15 PM 32.0 °F 22.1 °F 28.4 °F 87% 30.18 in 10.0 mi NNE 13.8 mph - N/A   Clear
10:35 PM 32.0 °F 22.5 °F 28.4 °F 87% 30.19 in 10.0 mi NE 12.7 mph - N/A   Clear
10:55 PM 32.0 °F 21.2 °F 26.6 °F 80% 30.19 in 10.0 mi NE 16.1 mph - N/A   Clear
11:15 PM 32.0 °F 20.8 °F 24.8 °F 75% 30.19 in 10.0 mi NE 17.3 mph 21.9 mph N/A   Clear
11:35 PM 32.0 °F 21.6 °F 24.8 °F 75% 30.20 in 10.0 mi NE 15.0 mph - N/A   Clear
11:55 PM 32.0 °F 23.0 °F 24.8 °F 75% 30.20 in 10.0 mi NNE 11.5 mph 17.3 mph N/A   Clear